createdAt,value
2023-01-26T00:01:43.698Z,58.03
2023-01-26T00:04:11.567Z,54.33
2023-01-26T00:06:41.684Z,50.53
2023-01-26T00:09:15.591Z,52.67
2023-01-26T00:11:43.593Z,54.73
2023-01-26T00:14:13.648Z,57.93
2023-01-26T00:16:40.722Z,55.13
2023-01-26T00:19:08.697Z,55.80
2023-01-26T00:21:38.750Z,49.90
2023-01-26T00:24:11.329Z,54.47
2023-01-26T00:26:41.382Z,57.60
2023-01-26T00:29:09.452Z,55.47
2023-01-26T00:31:39.611Z,51.73
2023-01-26T00:34:10.187Z,51.73
2023-01-26T00:36:37.805Z,48.30
2023-01-26T00:39:05.768Z,51.50
2023-01-26T00:41:53.207Z,52.63
2023-01-26T00:44:26.135Z,55.03
2023-01-26T00:46:55.065Z,56.57
2023-01-26T00:49:25.227Z,50.73
2023-01-26T00:51:58.290Z,56.87
2023-01-26T00:54:28.486Z,53.47
2023-01-26T00:56:58.708Z,52.23
2023-01-26T00:59:26.682Z,51.30
2023-01-26T01:01:57.142Z,49.87
2023-01-26T01:04:24.477Z,51.37
2023-01-26T01:06:52.051Z,52.00
2023-01-26T01:09:19.391Z,52.93
2023-01-26T01:11:49.343Z,54.03
2023-01-26T01:14:20.476Z,51.80
2023-01-26T01:17:01.734Z,50.07
2023-01-26T01:19:29.810Z,58.63
2023-01-26T01:21:59.773Z,54.43
2023-01-26T01:24:26.854Z,56.33
2023-01-26T01:26:56.830Z,56.63
2023-01-26T01:29:25.754Z,52.60
2023-01-26T01:31:52.757Z,59.57
2023-01-26T01:34:25.954Z,58.33
2023-01-26T01:36:52.869Z,58.07
2023-01-26T01:39:19.833Z,56.37
2023-01-26T01:41:47.117Z,60.23
2023-01-26T01:44:23.515Z,59.13
2023-01-26T01:47:04.489Z,54.27
2023-01-26T01:49:46.372Z,60.17
2023-01-26T01:52:26.220Z,55.93
2023-01-26T01:55:02.132Z,53.33
2023-01-26T01:57:56.242Z,54.97
2023-01-26T02:00:27.362Z,53.23
2023-01-26T02:03:14.737Z,57.07
2023-01-26T02:06:04.021Z,55.63
2023-01-26T02:08:55.062Z,53.30
2023-01-26T02:11:41.614Z,59.80
2023-01-26T02:14:13.451Z,65.33
2023-01-26T02:16:43.620Z,58.60
2023-01-26T02:19:43.089Z,62.30
2023-01-26T02:22:34.250Z,60.17
2023-01-26T02:25:18.330Z,56.40
2023-01-26T02:27:45.429Z,63.70
2023-01-26T02:30:18.493Z,59.90
2023-01-26T02:32:48.608Z,60.43
2023-01-26T02:35:16.592Z,65.67
2023-01-26T02:37:43.547Z,62.50
2023-01-26T02:40:26.124Z,52.20
2023-01-26T02:42:55.424Z,63.13
2023-01-26T02:45:29.060Z,62.07
2023-01-26T02:47:56.194Z,58.30
2023-01-26T02:50:24.209Z,62.63
2023-01-26T02:52:54.255Z,62.70
2023-01-26T02:55:23.281Z,73.97
2023-01-26T02:57:55.940Z,62.23
2023-01-26T03:00:30.579Z,64.73
2023-01-26T03:03:01.687Z,56.50
2023-01-26T03:05:29.181Z,65.30
2023-01-26T03:07:57.136Z,67.50
2023-01-26T03:10:27.201Z,64.70
2023-01-26T03:12:57.387Z,56.27
2023-01-26T03:15:46.327Z,60.13
2023-01-26T03:18:35.119Z,64.23
2023-01-26T03:21:27.502Z,63.73
2023-01-26T03:24:18.406Z,63.27
2023-01-26T03:27:05.159Z,53.30
2023-01-26T03:29:34.417Z,54.20
2023-01-26T03:32:06.910Z,66.47
2023-01-26T03:34:36.306Z,66.00
2023-01-26T03:37:03.792Z,63.60
2023-01-26T03:39:50.593Z,53.50
2023-01-26T03:42:36.237Z,54.80
2023-01-26T03:45:25.134Z,56.83
2023-01-26T03:48:21.699Z,28.50
2023-01-26T03:51:08.106Z,14.57
2023-01-26T03:53:53.379Z,8.17
2023-01-26T03:56:24.557Z,16.17
2023-01-26T03:58:53.811Z,20.07
2023-01-26T04:01:31.100Z,17.73
2023-01-26T04:04:19.424Z,29.53
2023-01-26T04:07:08.801Z,30.47
2023-01-26T04:09:39.289Z,25.63
2023-01-26T04:12:14.483Z,30.23
2023-01-26T04:14:59.764Z,27.63
2023-01-26T04:17:46.132Z,38.83
2023-01-26T04:20:32.543Z,28.77
2023-01-26T04:23:01.542Z,33.10
2023-01-26T04:25:29.495Z,31.27
2023-01-26T04:27:58.817Z,43.07
2023-01-26T04:30:26.847Z,32.40
2023-01-26T04:32:59.775Z,32.47
2023-01-26T04:35:26.767Z,23.63
2023-01-26T04:37:54.862Z,34.40
2023-01-26T04:40:25.157Z,44.50
2023-01-26T04:42:52.109Z,30.40
2023-01-26T04:45:22.169Z,28.97
2023-01-26T04:47:51.002Z,20.00
2023-01-26T04:50:21.195Z,29.87
2023-01-26T04:52:52.234Z,36.37
2023-01-26T04:55:22.280Z,24.33
2023-01-26T04:57:53.856Z,28.80
2023-01-26T05:00:21.556Z,36.37
2023-01-26T05:02:48.424Z,34.37
2023-01-26T05:05:17.349Z,30.43
2023-01-26T05:07:44.244Z,33.10
2023-01-26T05:10:13.893Z,24.57
2023-01-26T05:12:45.585Z,29.13
2023-01-26T05:15:13.549Z,25.20
2023-01-26T05:17:41.741Z,36.40
2023-01-26T05:20:12.790Z,20.40
2023-01-26T05:22:43.421Z,29.60
2023-01-26T05:25:11.201Z,20.50
2023-01-26T05:27:38.145Z,25.47
2023-01-26T05:30:09.096Z,26.27
2023-01-26T05:32:38.636Z,26.87
2023-01-26T05:35:11.671Z,39.77
2023-01-26T05:37:38.784Z,28.60
2023-01-26T05:40:06.300Z,28.47
2023-01-26T05:42:45.515Z,35.50
2023-01-26T05:45:14.945Z,25.20
2023-01-26T05:47:45.189Z,36.57
2023-01-26T05:50:13.921Z,30.13
2023-01-26T05:52:42.313Z,37.00
2023-01-26T05:55:12.118Z,42.00
2023-01-26T05:57:39.152Z,37.77
2023-01-26T06:00:10.346Z,40.90
2023-01-26T06:02:37.524Z,38.70
2023-01-26T06:05:06.045Z,33.60
2023-01-26T06:07:40.333Z,39.97
2023-01-26T06:10:11.315Z,33.90
2023-01-26T06:12:39.217Z,40.07
2023-01-26T06:15:07.834Z,44.13
2023-01-26T06:17:37.931Z,37.93
2023-01-26T06:20:08.826Z,44.53
2023-01-26T06:22:35.780Z,40.43
2023-01-26T06:25:06.070Z,30.87
2023-01-26T06:27:36.412Z,34.87
2023-01-26T06:30:07.073Z,43.83
2023-01-26T06:32:36.838Z,45.53
2023-01-26T06:35:06.658Z,43.97
2023-01-26T06:37:37.704Z,41.57
2023-01-26T06:40:08.288Z,42.97
2023-01-26T06:42:41.286Z,39.27
2023-01-26T06:45:15.555Z,36.80
2023-01-26T06:47:50.089Z,43.20
2023-01-26T06:50:23.229Z,41.93
2023-01-26T06:52:59.364Z,51.60
2023-01-26T06:55:39.629Z,35.67
2023-01-26T06:58:07.584Z,38.43
2023-01-26T07:00:35.608Z,45.43
2023-01-26T07:03:03.575Z,42.37
2023-01-26T07:05:33.531Z,31.00
2023-01-26T07:08:06.905Z,40.50
2023-01-26T07:10:38.019Z,32.67
2023-01-26T07:13:06.303Z,28.07
2023-01-26T07:15:38.255Z,37.47
2023-01-26T07:18:06.348Z,33.30
2023-01-26T07:20:43.338Z,40.30
2023-01-26T07:23:11.330Z,32.60
2023-01-26T07:25:38.254Z,30.10
2023-01-26T07:28:11.307Z,36.43
2023-01-26T07:30:41.388Z,39.80
2023-01-26T07:33:09.536Z,31.47
2023-01-26T07:35:36.487Z,34.27
2023-01-26T07:38:06.819Z,36.27
2023-01-26T07:40:36.975Z,29.47
2023-01-26T07:43:04.949Z,21.67
2023-01-26T07:45:34.324Z,28.57
2023-01-26T07:48:03.547Z,27.43
2023-01-26T07:50:35.484Z,26.03
2023-01-26T07:53:02.785Z,34.67
2023-01-26T07:55:31.744Z,27.17
2023-01-26T07:58:00.781Z,26.73
2023-01-26T08:00:30.238Z,31.03
2023-01-26T08:02:57.359Z,30.90
2023-01-26T08:05:25.351Z,26.83
2023-01-26T08:07:58.996Z,27.90
2023-01-26T08:10:30.080Z,33.67
2023-01-26T08:13:02.279Z,32.93
2023-01-26T08:15:39.870Z,32.67
2023-01-26T08:18:07.863Z,36.93
2023-01-26T08:20:37.896Z,28.90
2023-01-26T08:23:06.792Z,27.77
2023-01-26T08:25:36.913Z,32.90
2023-01-26T08:28:06.731Z,39.10
2023-01-26T08:30:39.681Z,33.50
2023-01-26T08:33:07.362Z,43.57
2023-01-26T08:35:35.186Z,29.60
2023-01-26T08:38:07.877Z,22.73
2023-01-26T08:40:38.429Z,22.57
2023-01-26T08:43:11.491Z,30.80
2023-01-26T08:45:44.153Z,35.60
2023-01-26T08:48:12.332Z,35.60
2023-01-26T08:50:40.312Z,36.63
2023-01-26T08:53:10.498Z,27.60
2023-01-26T08:55:41.837Z,31.00
2023-01-26T08:58:11.389Z,22.47
2023-01-26T09:00:38.298Z,26.30
2023-01-26T09:03:08.669Z,25.77
2023-01-26T09:05:40.673Z,31.97
2023-01-26T09:08:10.589Z,28.23
2023-01-26T09:10:39.077Z,26.17
2023-01-26T09:13:07.991Z,21.60
2023-01-26T09:15:38.588Z,31.43
2023-01-26T09:18:11.459Z,27.43
2023-01-26T09:20:39.710Z,25.43
2023-01-26T09:23:12.201Z,24.60
2023-01-26T09:25:42.185Z,27.67
2023-01-26T09:28:11.141Z,21.43
2023-01-26T09:30:38.183Z,24.07
2023-01-26T09:33:07.421Z,21.10
2023-01-26T09:35:34.392Z,23.23
2023-01-26T09:38:01.443Z,19.10
2023-01-26T09:40:37.683Z,25.60
2023-01-26T09:43:34.643Z,19.60
2023-01-26T09:46:40.284Z,17.90
2023-01-26T09:49:20.467Z,16.70
2023-01-26T09:52:34.348Z,21.33
2023-01-26T09:55:09.562Z,17.97
2023-01-26T09:58:03.103Z,19.30
2023-01-26T10:00:46.195Z,14.27
2023-01-26T10:03:43.998Z,18.43
2023-01-26T10:06:28.449Z,27.73
2023-01-26T10:08:57.696Z,28.00
2023-01-26T10:11:24.849Z,19.57
2023-01-26T10:14:12.543Z,25.80
2023-01-26T10:16:44.971Z,22.00
2023-01-26T10:19:33.759Z,20.50
2023-01-26T10:22:06.366Z,26.30
2023-01-26T10:24:36.580Z,24.27
2023-01-26T10:27:10.268Z,21.30
2023-01-26T10:29:40.492Z,20.47
2023-01-26T10:32:16.541Z,22.53
2023-01-26T10:34:51.344Z,18.50
2023-01-26T10:37:29.973Z,23.70
2023-01-26T10:40:04.579Z,15.70
2023-01-26T10:42:33.369Z,20.02
2023-01-26T10:45:04.463Z,20.30
2023-01-26T10:47:36.565Z,25.90
2023-01-26T10:50:24.882Z,21.02
2023-01-26T10:53:29.873Z,17.33
2023-01-26T10:56:19.792Z,21.75
2023-01-26T10:59:05.751Z,23.77
2023-01-26T11:01:58.835Z,17.02
2023-01-26T11:04:26.211Z,19.90
2023-01-26T11:06:57.776Z,20.08
2023-01-26T11:09:33.081Z,21.70
2023-01-26T11:12:08.747Z,24.83
2023-01-26T11:14:36.801Z,19.80
2023-01-26T11:17:21.919Z,17.73
2023-01-26T11:19:51.927Z,15.98
2023-01-26T11:22:53.039Z,19.23
2023-01-26T11:26:01.604Z,13.77
2023-01-26T11:28:36.599Z,16.17
2023-01-26T11:31:34.559Z,18.48
2023-01-26T11:34:43.610Z,15.55
2023-01-26T11:37:29.579Z,17.00
2023-01-26T11:40:18.296Z,15.53
2023-01-26T11:43:05.301Z,16.33
2023-01-26T11:45:37.744Z,13.57
2023-01-26T11:48:06.776Z,13.67
2023-01-26T11:50:46.935Z,18.43
2023-01-26T11:53:30.997Z,15.73
2023-01-26T11:56:16.403Z,16.80
2023-01-26T11:58:55.231Z,12.70
2023-01-26T12:01:34.315Z,14.87
2023-01-26T12:04:03.484Z,15.50
2023-01-26T12:06:45.733Z,15.63
2023-01-26T12:09:32.719Z,20.30
2023-01-26T12:12:21.297Z,16.57
2023-01-26T12:14:59.043Z,21.33
2023-01-26T12:17:53.205Z,16.33
2023-01-26T12:20:32.150Z,13.77
2023-01-26T12:23:08.968Z,15.50
2023-01-26T12:26:04.661Z,19.07
2023-01-26T12:28:45.167Z,12.67
2023-01-26T12:31:48.361Z,13.93
2023-01-26T12:34:23.675Z,19.03
2023-01-26T12:37:00.473Z,17.63
2023-01-26T12:40:12.331Z,18.77
2023-01-26T12:42:44.406Z,15.30
2023-01-26T12:45:29.055Z,15.73
2023-01-26T12:48:23.522Z,18.03
2023-01-26T12:50:58.182Z,11.33
2023-01-26T12:53:37.949Z,10.50
2023-01-26T12:56:15.332Z,19.33
2023-01-26T12:58:48.431Z,13.70
2023-01-26T13:01:18.916Z,15.40
2023-01-26T13:03:57.448Z,10.00
2023-01-26T13:06:30.909Z,15.53
2023-01-26T13:09:25.500Z,16.33
2023-01-26T13:11:59.152Z,15.80
2023-01-26T13:14:45.067Z,12.73
2023-01-26T13:17:20.053Z,19.97
2023-01-26T13:19:47.142Z,15.83
2023-01-26T13:22:23.043Z,14.03
2023-01-26T13:25:02.807Z,11.23
2023-01-26T13:27:44.365Z,14.70
2023-01-26T13:30:29.259Z,10.00
2023-01-26T13:33:12.197Z,16.20
2023-01-26T13:35:39.959Z,11.37
2023-01-26T13:38:43.088Z,14.63
2023-01-26T13:41:22.214Z,17.73
2023-01-26T13:44:02.752Z,12.70
2023-01-26T13:46:51.550Z,18.00
2023-01-26T13:49:38.749Z,18.80
2023-01-26T13:52:21.937Z,10.70
2023-01-26T13:54:50.429Z,15.20
2023-01-26T13:57:26.140Z,16.73
2023-01-26T14:00:00.821Z,10.63
2023-01-26T14:02:35.241Z,18.07
2023-01-26T14:05:03.653Z,19.10
2023-01-26T14:07:36.838Z,17.40
2023-01-26T14:10:04.626Z,18.40
2023-01-26T14:12:47.867Z,21.07
2023-01-26T14:15:27.591Z,12.23
2023-01-26T14:18:02.122Z,10.87
2023-01-26T14:20:38.235Z,10.80
2023-01-26T14:23:10.975Z,13.37
2023-01-26T14:25:45.465Z,21.63
2023-01-26T14:28:17.292Z,12.50
2023-01-26T14:30:58.074Z,14.63
2023-01-26T14:33:27.199Z,15.70
2023-01-26T14:36:04.284Z,12.67
2023-01-26T14:38:45.750Z,15.27
2023-01-26T14:41:34.523Z,13.23
2023-01-26T14:44:06.142Z,14.03
2023-01-26T14:46:56.838Z,13.57
2023-01-26T14:49:29.725Z,16.00
2023-01-26T14:51:58.987Z,14.13
2023-01-26T14:54:28.562Z,18.93
2023-01-26T14:56:58.078Z,17.20
2023-01-26T14:59:40.453Z,17.23
2023-01-26T15:02:18.371Z,18.03
2023-01-26T15:04:51.114Z,17.87
2023-01-26T15:07:58.934Z,13.40
2023-01-26T15:10:29.009Z,14.90
2023-01-26T15:13:25.503Z,16.23
2023-01-26T15:16:15.217Z,13.40
2023-01-26T15:18:45.971Z,19.37
2023-01-26T15:21:19.415Z,14.20
2023-01-26T15:23:50.798Z,18.80
2023-01-26T15:26:30.776Z,17.67
2023-01-26T15:29:02.447Z,14.10
2023-01-26T15:31:33.676Z,13.93
2023-01-26T15:34:04.676Z,17.60
2023-01-26T15:36:49.935Z,13.17
2023-01-26T15:39:18.612Z,15.80
2023-01-26T15:42:13.575Z,5.63
2023-01-26T15:44:48.101Z,9.27
2023-01-26T15:47:17.451Z,12.87
2023-01-26T15:49:49.871Z,13.67
2023-01-26T15:52:24.827Z,8.20
2023-01-26T15:54:56.755Z,9.67
2023-01-26T15:57:26.799Z,9.10
2023-01-26T15:59:56.857Z,7.90
2023-01-26T16:02:26.762Z,8.97
2023-01-26T16:04:59.832Z,9.53
2023-01-26T16:07:27.823Z,11.13
2023-01-26T16:09:55.733Z,7.47
2023-01-26T16:12:31.878Z,15.53
2023-01-26T16:14:59.949Z,9.87
2023-01-26T16:17:30.513Z,9.03
2023-01-26T16:20:02.521Z,9.60
2023-01-26T16:22:29.581Z,10.27
2023-01-26T16:25:02.601Z,10.37
2023-01-26T16:27:30.838Z,11.33
2023-01-26T16:29:59.855Z,11.53
2023-01-26T16:32:29.936Z,11.67
2023-01-26T16:34:58.083Z,9.43
2023-01-26T16:37:27.088Z,12.13
2023-01-26T16:39:53.964Z,13.30
2023-01-26T16:42:21.756Z,6.90
2023-01-26T16:44:51.673Z,13.50
2023-01-26T16:47:20.670Z,10.47
2023-01-26T16:49:50.600Z,15.97
2023-01-26T16:52:23.593Z,11.33
2023-01-26T16:54:54.145Z,18.27
2023-01-26T16:57:24.175Z,16.17
2023-01-26T16:59:53.132Z,14.37
2023-01-26T17:02:33.488Z,9.53
2023-01-26T17:05:00.501Z,17.20
2023-01-26T17:07:27.519Z,10.37
2023-01-26T17:09:56.584Z,10.77
2023-01-26T17:12:25.606Z,15.27
2023-01-26T17:14:54.774Z,21.10
2023-01-26T17:17:24.868Z,18.53
2023-01-26T17:20:17.576Z,14.93
2023-01-26T17:22:48.768Z,11.27
2023-01-26T17:25:19.337Z,16.13
2023-01-26T17:27:49.958Z,12.63
2023-01-26T17:30:18.716Z,18.33
2023-01-26T17:32:49.091Z,18.50
2023-01-26T17:35:16.139Z,15.97
2023-01-26T17:37:43.189Z,14.93
2023-01-26T17:40:14.452Z,17.03
2023-01-26T17:42:44.523Z,17.93
2023-01-26T17:45:20.709Z,13.80
2023-01-26T17:47:47.997Z,13.20
2023-01-26T17:50:19.399Z,13.73
2023-01-26T17:52:48.583Z,11.80
2023-01-26T17:55:15.694Z,19.77
2023-01-26T17:57:42.659Z,14.60
2023-01-26T18:00:13.384Z,18.70
2023-01-26T18:02:46.813Z,18.57
2023-01-26T18:05:14.135Z,24.03
2023-01-26T18:07:43.282Z,18.67
2023-01-26T18:10:10.962Z,16.53
2023-01-26T18:12:39.013Z,15.57
2023-01-26T18:15:06.764Z,15.30
2023-01-26T18:17:37.165Z,15.87
2023-01-26T18:20:06.821Z,16.80
2023-01-26T18:22:33.733Z,12.20
2023-01-26T18:25:02.704Z,10.57
2023-01-26T18:27:30.718Z,14.30
2023-01-26T18:30:00.870Z,13.40
2023-01-26T18:32:27.924Z,23.47
2023-01-26T18:34:54.919Z,14.10
2023-01-26T18:37:24.444Z,25.90
2023-01-26T18:39:53.548Z,17.20
2023-01-26T18:42:20.483Z,15.60
2023-01-26T18:44:47.448Z,16.63
2023-01-26T18:47:18.163Z,19.40
2023-01-26T18:49:45.120Z,10.40
2023-01-26T18:52:14.946Z,17.83
2023-01-26T18:54:42.703Z,12.87
2023-01-26T18:57:12.012Z,16.80
2023-01-26T18:59:41.791Z,18.53
2023-01-26T19:02:14.778Z,18.50
2023-01-26T19:04:42.292Z,22.63
2023-01-26T19:07:10.197Z,16.03
2023-01-26T19:09:40.228Z,14.97
2023-01-26T19:12:08.608Z,24.20
2023-01-26T19:14:35.669Z,25.83
2023-01-26T19:17:04.018Z,16.33
2023-01-26T19:19:35.947Z,24.17
2023-01-26T19:22:04.984Z,18.17
2023-01-26T19:24:32.133Z,20.67
2023-01-26T19:27:00.093Z,14.57
2023-01-26T19:29:27.363Z,14.70
2023-01-26T19:31:54.336Z,11.03
2023-01-26T19:34:21.304Z,23.13
2023-01-26T19:36:48.637Z,25.73
2023-01-26T19:39:15.559Z,15.73
2023-01-26T19:41:44.229Z,16.47
2023-01-26T19:44:11.228Z,15.50
2023-01-26T19:46:41.058Z,23.33
2023-01-26T19:49:11.824Z,25.30
2023-01-26T19:51:38.881Z,23.63
2023-01-26T19:54:07.152Z,23.77
2023-01-26T19:56:38.138Z,19.43
2023-01-26T19:59:08.159Z,17.07
2023-01-26T20:01:42.778Z,21.90
2023-01-26T20:04:16.312Z,18.50
2023-01-26T20:06:43.248Z,12.63
2023-01-26T20:09:10.260Z,18.10
2023-01-26T20:11:37.410Z,20.80
2023-01-26T20:14:10.356Z,11.93
2023-01-26T20:16:40.725Z,24.00
2023-01-26T20:19:07.690Z,10.07
2023-01-26T20:21:37.749Z,17.77
2023-01-26T20:24:06.448Z,17.17
2023-01-26T20:26:35.030Z,11.33
2023-01-26T20:29:02.165Z,11.87
2023-01-26T20:31:30.357Z,12.87
2023-01-26T20:33:58.751Z,17.57
2023-01-26T20:36:27.883Z,21.10
2023-01-26T20:39:15.149Z,20.93
2023-01-26T20:41:42.141Z,15.83
2023-01-26T20:44:09.111Z,16.70
2023-01-26T20:46:40.698Z,15.50
2023-01-26T20:49:10.384Z,15.37
2023-01-26T20:51:39.622Z,15.33
2023-01-26T20:54:07.578Z,18.93
2023-01-26T20:56:36.712Z,16.07
2023-01-26T20:59:04.528Z,11.77
2023-01-26T21:01:36.553Z,13.33
2023-01-26T21:04:05.041Z,17.23
2023-01-26T21:06:32.064Z,13.47
2023-01-26T21:09:00.604Z,19.63
2023-01-26T21:11:31.410Z,23.23
2023-01-26T21:14:01.814Z,21.13
2023-01-26T21:16:30.014Z,10.90
2023-01-26T21:18:57.747Z,12.17
2023-01-26T21:21:26.549Z,16.73
2023-01-26T21:23:53.639Z,13.67
2023-01-26T21:26:23.109Z,8.37
2023-01-26T21:28:53.622Z,11.57
2023-01-26T21:31:23.453Z,15.70
2023-01-26T21:33:51.246Z,16.97
2023-01-26T21:36:24.505Z,16.97
2023-01-26T21:38:57.510Z,14.53
2023-01-26T21:41:46.230Z,18.77
2023-01-26T21:44:22.238Z,13.43
2023-01-26T21:46:52.100Z,20.67
2023-01-26T21:49:22.567Z,20.83
2023-01-26T21:52:16.546Z,19.70
2023-01-26T21:54:46.521Z,28.80
2023-01-26T21:57:31.867Z,18.67
2023-01-26T21:59:58.805Z,23.50
2023-01-26T22:02:26.960Z,16.73
2023-01-26T22:04:55.257Z,12.57
2023-01-26T22:07:24.649Z,10.87
2023-01-26T22:09:51.555Z,10.57
2023-01-26T22:12:18.671Z,14.67
2023-01-26T22:14:45.550Z,14.33
2023-01-26T22:17:12.439Z,18.57
2023-01-26T22:19:39.385Z,17.97
2023-01-26T22:22:06.252Z,17.90
2023-01-26T22:24:35.686Z,19.50
2023-01-26T22:27:03.767Z,18.20
2023-01-26T22:29:30.632Z,13.43
2023-01-26T22:31:57.729Z,20.53
2023-01-26T22:34:24.789Z,13.33
2023-01-26T22:36:51.692Z,21.33
2023-01-26T22:39:19.259Z,16.27
2023-01-26T22:41:46.206Z,20.83
2023-01-26T22:44:13.101Z,16.40
2023-01-26T22:46:40.151Z,14.67
2023-01-26T22:49:08.085Z,15.73
2023-01-26T22:51:37.517Z,21.47
2023-01-26T22:54:05.547Z,20.13
2023-01-26T22:56:32.610Z,19.20
2023-01-26T22:59:00.752Z,20.60
2023-01-26T23:01:32.534Z,16.77
2023-01-26T23:04:00.693Z,25.47
2023-01-26T23:06:30.251Z,16.70
2023-01-26T23:09:00.626Z,10.77
2023-01-26T23:11:29.119Z,13.33
2023-01-26T23:14:04.950Z,10.20
2023-01-26T23:16:31.903Z,9.00
2023-01-26T23:18:59.942Z,12.73
2023-01-26T23:21:28.719Z,14.83
2023-01-26T23:23:55.894Z,10.80
2023-01-26T23:26:22.927Z,11.33
2023-01-26T23:28:49.924Z,13.17
2023-01-26T23:31:18.212Z,13.60
2023-01-26T23:33:47.830Z,14.33
2023-01-26T23:36:15.431Z,15.97
2023-01-26T23:38:42.611Z,13.13
2023-01-26T23:41:09.630Z,19.97
2023-01-26T23:43:36.878Z,13.70
2023-01-26T23:46:07.841Z,19.90
2023-01-26T23:48:37.815Z,32.10
2023-01-26T23:51:10.589Z,14.70
2023-01-26T23:53:38.205Z,24.77
2023-01-26T23:56:08.335Z,17.40
2023-01-26T23:58:37.978Z,20.63
